createdAt,value
2022-12-12T00:00:26.953Z,0
2022-12-12T00:01:43.254Z,0
2022-12-12T00:02:59.326Z,0
2022-12-12T00:04:15.839Z,0
2022-12-12T00:05:32.127Z,0
2022-12-12T00:06:48.191Z,0
2022-12-12T00:08:04.495Z,0
2022-12-12T00:09:20.797Z,0
2022-12-12T00:10:37.305Z,0
2022-12-12T00:11:53.612Z,0
2022-12-12T00:13:08.696Z,0
2022-12-12T00:14:24.982Z,0
2022-12-12T00:15:41.269Z,0
2022-12-12T00:16:57.794Z,0
2022-12-12T00:18:13.871Z,0
2022-12-12T00:19:30.173Z,0
2022-12-12T00:20:46.674Z,0
2022-12-12T00:22:02.767Z,0
2022-12-12T00:23:19.071Z,0
2022-12-12T00:24:35.599Z,0
2022-12-12T00:25:51.877Z,0
2022-12-12T00:27:08.171Z,0
2022-12-12T00:28:24.000Z,0
2022-12-12T00:29:40.758Z,0
2022-12-12T00:30:57.179Z,0
2022-12-12T00:32:13.253Z,0
2022-12-12T00:33:29.768Z,0
2022-12-12T00:34:45.834Z,0
2022-12-12T00:36:02.354Z,0
2022-12-12T00:37:18.428Z,0
2022-12-12T00:38:34.714Z,0
2022-12-12T00:39:51.017Z,0
2022-12-12T00:41:07.318Z,0
2022-12-12T00:42:23.610Z,0
2022-12-12T00:43:40.122Z,0
2022-12-12T00:44:56.189Z,0
2022-12-12T00:46:12.708Z,0
2022-12-12T00:47:27.804Z,0
2022-12-12T00:48:44.097Z,0
2022-12-12T00:50:00.608Z,0
2022-12-12T00:51:16.920Z,0
2022-12-12T00:52:33.198Z,0
2022-12-12T00:53:49.266Z,0
2022-12-12T00:55:05.790Z,0
2022-12-12T00:56:21.861Z,0
2022-12-12T00:57:38.160Z,0
2022-12-12T00:58:54.446Z,0
2022-12-12T01:00:10.741Z,0
2022-12-12T01:01:27.050Z,0
2022-12-12T01:02:43.552Z,0
2022-12-12T01:03:58.642Z,0
2022-12-12T01:05:15.158Z,0
2022-12-12T01:06:31.460Z,0
2022-12-12T01:07:47.747Z,0
2022-12-12T01:09:04.045Z,0
2022-12-12T01:10:20.126Z,0
2022-12-12T01:11:36.633Z,0
2022-12-12T01:12:52.698Z,0
2022-12-12T01:14:09.216Z,0
2022-12-12T01:15:25.290Z,0
2022-12-12T01:16:41.812Z,0
2022-12-12T01:17:57.875Z,0
2022-12-12T01:19:14.188Z,0
2022-12-12T01:20:29.714Z,0
2022-12-12T01:21:45.776Z,0
2022-12-12T01:23:02.080Z,0
2022-12-12T01:24:18.367Z,0
2022-12-12T01:25:34.668Z,0
2022-12-12T01:26:50.961Z,0
2022-12-12T01:28:07.262Z,0
2022-12-12T01:29:23.560Z,0
2022-12-12T01:30:40.080Z,0
2022-12-12T01:31:56.136Z,0
2022-12-12T01:33:12.424Z,0
2022-12-12T01:34:28.738Z,0
2022-12-12T01:35:45.247Z,0
2022-12-12T01:37:00.328Z,0
2022-12-12T01:38:16.632Z,0
2022-12-12T01:39:32.917Z,0
2022-12-12T01:40:49.216Z,0
2022-12-12T01:42:05.522Z,0
2022-12-12T01:43:22.022Z,0
2022-12-12T01:44:38.101Z,0
2022-12-12T01:45:54.392Z,0
2022-12-12T01:47:10.687Z,0
2022-12-12T01:48:26.983Z,0
2022-12-12T01:49:43.278Z,0
2022-12-12T01:50:59.572Z,0
2022-12-12T01:52:16.101Z,0
2022-12-12T01:53:32.153Z,0
2022-12-12T01:54:47.695Z,0
2022-12-12T01:56:03.759Z,0
2022-12-12T01:57:20.053Z,0
2022-12-12T01:58:36.353Z,0
2022-12-12T01:59:52.654Z,0
2022-12-12T02:01:08.949Z,0
2022-12-12T02:02:25.466Z,0
2022-12-12T02:03:41.532Z,0
2022-12-12T02:04:57.824Z,0
2022-12-12T02:06:14.340Z,0
2022-12-12T02:07:30.633Z,0
2022-12-12T02:08:46.941Z,0
2022-12-12T02:10:03.003Z,0
2022-12-12T02:11:19.297Z,0
2022-12-12T02:12:34.609Z,0
2022-12-12T02:13:50.901Z,0
2022-12-12T02:15:07.421Z,0
2022-12-12T02:16:23.499Z,0
2022-12-12T02:17:39.794Z,0
2022-12-12T02:18:56.304Z,0
2022-12-12T02:20:12.370Z,0
2022-12-12T02:21:28.666Z,0
2022-12-12T02:22:45.188Z,0
2022-12-12T02:24:01.480Z,0
2022-12-12T02:25:17.548Z,0
2022-12-12T02:26:33.852Z,0
2022-12-12T02:27:50.143Z,0
2022-12-12T02:29:06.439Z,0
2022-12-12T02:30:21.742Z,0
2022-12-12T02:31:38.276Z,0
2022-12-12T02:32:54.332Z,0
2022-12-12T02:34:10.639Z,0
2022-12-12T02:35:26.922Z,0
2022-12-12T02:36:43.445Z,0
2022-12-12T02:37:59.738Z,0
2022-12-12T02:39:15.814Z,0
2022-12-12T02:40:32.324Z,0
2022-12-12T02:41:48.616Z,0
2022-12-12T02:43:04.695Z,0
2022-12-12T02:44:21.205Z,0
2022-12-12T02:45:37.286Z,0
2022-12-12T02:46:53.802Z,0
2022-12-12T02:48:08.888Z,0
2022-12-12T02:49:25.185Z,0
2022-12-12T02:50:41.709Z,0
2022-12-12T02:51:57.769Z,0
2022-12-12T02:53:14.292Z,0
2022-12-12T02:54:30.363Z,0
2022-12-12T02:55:46.656Z,0
2022-12-12T02:57:02.953Z,0
2022-12-12T02:58:19.238Z,0
2022-12-12T02:59:35.758Z,0
2022-12-12T03:00:52.061Z,0
2022-12-12T03:02:08.350Z,0
2022-12-12T03:03:24.431Z,0
2022-12-12T03:04:40.718Z,0
2022-12-12T03:05:57.146Z,0
2022-12-12T03:07:13.645Z,0
2022-12-12T03:08:29.731Z,0
2022-12-12T03:09:46.237Z,0
2022-12-12T03:11:02.530Z,0
2022-12-12T03:12:18.554Z,0
2022-12-12T03:13:34.801Z,0
2022-12-12T03:14:51.261Z,0
2022-12-12T03:16:07.334Z,0
2022-12-12T03:17:23.633Z,0
2022-12-12T03:18:39.167Z,0
2022-12-12T03:19:55.245Z,0
2022-12-12T03:21:11.549Z,0
2022-12-12T03:22:27.824Z,0
2022-12-12T03:23:44.344Z,0
2022-12-12T03:25:00.647Z,0
2022-12-12T03:26:16.946Z,0
2022-12-12T03:27:33.244Z,0
2022-12-12T03:28:49.534Z,0
2022-12-12T03:30:05.604Z,0
2022-12-12T03:31:21.888Z,0
2022-12-12T03:32:38.186Z,0
2022-12-12T03:33:54.476Z,0
2022-12-12T03:35:10.778Z,0
2022-12-12T03:36:27.423Z,0
2022-12-12T03:37:43.718Z,0
2022-12-12T03:38:59.790Z,0
2022-12-12T03:40:16.079Z,0
2022-12-12T03:41:32.361Z,0
2022-12-12T03:42:48.674Z,0
2022-12-12T03:44:04.956Z,0
2022-12-12T03:45:21.486Z,0
2022-12-12T03:46:37.769Z,0
2022-12-12T03:47:53.835Z,0
2022-12-12T03:49:10.132Z,0
2022-12-12T03:50:26.655Z,0
2022-12-12T03:51:42.718Z,0
2022-12-12T03:52:58.262Z,0
2022-12-12T03:54:14.550Z,0
2022-12-12T03:55:30.634Z,0
2022-12-12T03:56:46.912Z,0
2022-12-12T03:58:03.436Z,0
2022-12-12T03:59:19.730Z,0
2022-12-12T04:00:36.029Z,0
2022-12-12T04:01:52.324Z,0
2022-12-12T04:03:08.616Z,0
2022-12-12T04:04:24.907Z,0
2022-12-12T04:05:41.201Z,0
2022-12-12T04:06:57.268Z,0
2022-12-12T04:08:13.788Z,0
2022-12-12T04:09:28.875Z,0
2022-12-12T04:10:45.183Z,0
2022-12-12T04:12:01.465Z,0
2022-12-12T04:13:17.986Z,0
2022-12-12T04:14:34.054Z,0
2022-12-12T04:15:50.358Z,0
2022-12-12T04:17:06.645Z,0
2022-12-12T04:18:23.166Z,0
2022-12-12T04:19:39.459Z,0
2022-12-12T04:20:55.543Z,0
2022-12-12T04:22:11.820Z,0
2022-12-12T04:23:28.122Z,0
2022-12-12T04:24:44.642Z,0
2022-12-12T04:25:59.959Z,0
2022-12-12T04:27:16.245Z,0
2022-12-12T04:28:32.544Z,0
2022-12-12T04:29:48.609Z,0
2022-12-12T04:31:05.140Z,0
2022-12-12T04:32:21.430Z,0
2022-12-12T04:33:37.735Z,0
2022-12-12T04:34:54.021Z,0
2022-12-12T04:36:10.087Z,0
2022-12-12T04:37:26.599Z,0
2022-12-12T04:38:42.894Z,0
2022-12-12T04:39:58.972Z,0
2022-12-12T04:41:15.483Z,0
2022-12-12T04:42:30.565Z,0
2022-12-12T04:43:47.101Z,0
2022-12-12T04:45:03.155Z,0
2022-12-12T04:46:19.686Z,0
2022-12-12T04:47:35.977Z,0
2022-12-12T04:48:52.039Z,0
2022-12-12T04:50:08.566Z,0
2022-12-12T04:51:24.626Z,0
2022-12-12T04:52:40.926Z,0
2022-12-12T04:53:57.452Z,0
2022-12-12T04:55:13.514Z,0
2022-12-12T04:56:29.806Z,0
2022-12-12T04:57:46.333Z,0
2022-12-12T04:59:02.631Z,0
2022-12-12T05:00:17.708Z,0
2022-12-12T05:01:34.235Z,0
2022-12-12T05:02:50.529Z,0
2022-12-12T05:04:06.596Z,0
2022-12-12T05:05:22.899Z,0
2022-12-12T05:06:39.409Z,0
2022-12-12T05:07:55.472Z,0
2022-12-12T05:09:11.779Z,0
2022-12-12T05:10:28.295Z,0
2022-12-12T05:11:44.370Z,0
2022-12-12T05:13:00.885Z,0
2022-12-12T05:14:17.188Z,0
2022-12-12T05:15:33.483Z,0
2022-12-12T05:16:49.782Z,0
2022-12-12T05:18:05.077Z,0
2022-12-12T05:19:21.374Z,0
2022-12-12T05:20:37.669Z,0
2022-12-12T05:21:53.960Z,0
2022-12-12T05:23:10.024Z,0
2022-12-12T05:24:26.548Z,0
2022-12-12T05:25:42.843Z,0
2022-12-12T05:26:58.923Z,0
2022-12-12T05:28:15.220Z,0
2022-12-12T05:29:31.737Z,0
2022-12-12T05:30:48.033Z,0
2022-12-12T05:32:04.332Z,0
2022-12-12T05:33:20.619Z,0
2022-12-12T05:34:36.907Z,0
2022-12-12T05:35:52.220Z,0
2022-12-12T05:37:08.289Z,0
2022-12-12T05:38:24.823Z,0
2022-12-12T05:39:40.879Z,0
2022-12-12T05:40:57.165Z,0
2022-12-12T05:42:13.694Z,0
2022-12-12T05:43:29.766Z,0
2022-12-12T05:44:46.281Z,0
2022-12-12T05:46:02.352Z,0
2022-12-12T05:47:18.638Z,0
2022-12-12T05:48:35.180Z,0
2022-12-12T05:49:51.459Z,0
2022-12-12T05:51:07.534Z,0
2022-12-12T05:52:23.829Z,0
2022-12-12T05:53:39.129Z,0
2022-12-12T05:54:55.377Z,0
2022-12-12T05:56:11.848Z,0
2022-12-12T05:57:28.099Z,0
2022-12-12T05:58:44.340Z,0
2022-12-12T06:00:00.351Z,0
2022-12-12T06:01:16.594Z,0
2022-12-12T06:02:32.864Z,0
2022-12-12T06:03:49.096Z,0
2022-12-12T06:05:05.350Z,0
2022-12-12T06:06:21.806Z,0
2022-12-12T06:07:38.061Z,0
2022-12-12T06:08:54.066Z,0
2022-12-12T06:10:10.297Z,0
2022-12-12T06:11:25.802Z,0
2022-12-12T06:12:42.034Z,0
2022-12-12T06:13:58.273Z,0
2022-12-12T06:15:14.289Z,0
2022-12-12T06:16:30.520Z,0
2022-12-12T06:17:46.991Z,0
2022-12-12T06:19:03.238Z,0
2022-12-12T06:20:19.252Z,0
2022-12-12T06:21:35.717Z,0
2022-12-12T06:22:51.732Z,0
2022-12-12T06:24:08.193Z,0
2022-12-12T06:25:24.201Z,0
2022-12-12T06:26:40.444Z,0
2022-12-12T06:27:56.689Z,0
2022-12-12T06:29:12.172Z,0
2022-12-12T06:30:28.416Z,0
2022-12-12T06:31:44.420Z,0
2022-12-12T06:33:00.893Z,0
2022-12-12T06:34:16.906Z,0
2022-12-12T06:35:33.378Z,0
2022-12-12T06:36:49.382Z,0
2022-12-12T06:38:05.854Z,0
2022-12-12T06:39:21.868Z,0
2022-12-12T06:40:38.104Z,0
2022-12-12T06:41:54.359Z,0
2022-12-12T06:43:10.817Z,0
2022-12-12T06:44:27.057Z,0
2022-12-12T06:45:43.064Z,0
2022-12-12T06:46:58.337Z,0
2022-12-12T06:48:14.793Z,0
2022-12-12T06:49:30.799Z,0
2022-12-12T06:50:47.283Z,0
2022-12-12T06:52:03.512Z,0
2022-12-12T06:53:19.528Z,0
2022-12-12T06:54:36.002Z,0
2022-12-12T06:55:52.018Z,0
2022-12-12T06:57:08.473Z,0
2022-12-12T06:58:24.488Z,0
2022-12-12T06:59:40.738Z,0
2022-12-12T07:00:57.211Z,0
2022-12-12T07:02:13.220Z,0
2022-12-12T07:03:29.449Z,0
2022-12-12T07:04:44.939Z,0
2022-12-12T07:06:00.959Z,0
2022-12-12T07:07:17.432Z,0
2022-12-12T07:08:33.431Z,0
2022-12-12T07:09:49.679Z,0
2022-12-12T07:11:06.147Z,5
2022-12-12T07:12:22.155Z,5
2022-12-12T07:13:38.385Z,5
2022-12-12T07:14:54.626Z,5
2022-12-12T07:16:11.103Z,5
2022-12-12T07:17:27.349Z,5
2022-12-12T07:18:43.363Z,5
2022-12-12T07:19:59.589Z,5
2022-12-12T07:21:15.826Z,11
2022-12-12T07:22:32.193Z,11
2022-12-12T07:23:48.430Z,11
2022-12-12T07:25:04.920Z,11
2022-12-12T07:26:21.145Z,11
2022-12-12T07:27:37.160Z,11
2022-12-12T07:28:53.397Z,16
2022-12-12T07:30:09.864Z,16
2022-12-12T07:31:26.117Z,16
2022-12-12T07:32:42.345Z,16
2022-12-12T07:33:58.584Z,16
2022-12-12T07:35:13.626Z,16
2022-12-12T07:36:30.090Z,22
2022-12-12T07:37:46.102Z,22
2022-12-12T07:39:02.568Z,22
2022-12-12T07:40:18.586Z,22
2022-12-12T07:41:35.048Z,28
2022-12-12T07:42:51.059Z,28
2022-12-12T07:44:07.309Z,28
2022-12-12T07:45:23.782Z,28
2022-12-12T07:46:39.784Z,28
2022-12-12T07:47:56.250Z,33
2022-12-12T07:49:12.265Z,33
2022-12-12T07:50:28.506Z,33
2022-12-12T07:51:44.747Z,33
2022-12-12T07:53:00.236Z,33
2022-12-12T07:54:16.241Z,33
2022-12-12T07:55:32.493Z,33
2022-12-12T07:56:48.724Z,33
2022-12-12T07:58:04.969Z,39
2022-12-12T07:59:21.436Z,39
2022-12-12T08:00:37.671Z,39
2022-12-12T08:01:53.682Z,39
2022-12-12T08:03:09.932Z,39
2022-12-12T08:04:26.407Z,39
2022-12-12T08:05:42.405Z,39
2022-12-12T08:06:58.880Z,45
2022-12-12T08:08:14.896Z,45
2022-12-12T08:09:31.137Z,45
2022-12-12T08:10:46.616Z,50
2022-12-12T08:12:02.858Z,50
2022-12-12T08:13:18.862Z,56
2022-12-12T08:14:35.111Z,61
2022-12-12T08:15:51.340Z,67
2022-12-12T08:17:07.590Z,67
2022-12-12T08:18:23.821Z,67
2022-12-12T08:19:40.302Z,73
2022-12-12T08:20:56.532Z,78
2022-12-12T08:22:12.778Z,78
2022-12-12T08:23:29.017Z,78
2022-12-12T08:24:45.031Z,84
2022-12-12T08:26:01.495Z,84
2022-12-12T08:27:17.739Z,84
2022-12-12T08:28:33.002Z,90
2022-12-12T08:29:49.243Z,90
2022-12-12T08:31:05.481Z,95
2022-12-12T08:32:21.724Z,101
2022-12-12T08:33:37.731Z,101
2022-12-12T08:34:53.973Z,101
2022-12-12T08:36:10.203Z,101
2022-12-12T08:37:26.443Z,101
2022-12-12T08:38:42.926Z,101
2022-12-12T08:39:58.925Z,101
2022-12-12T08:41:15.166Z,101
2022-12-12T08:42:31.645Z,101
2022-12-12T08:43:47.644Z,101
2022-12-12T08:45:04.122Z,106
2022-12-12T08:46:19.154Z,106
2022-12-12T08:47:35.624Z,106
2022-12-12T08:48:51.861Z,106
2022-12-12T08:50:07.872Z,106
2022-12-12T08:51:24.341Z,106
2022-12-12T08:52:40.345Z,106
2022-12-12T08:53:56.585Z,106
2022-12-12T08:55:13.055Z,106
2022-12-12T08:56:29.074Z,106
2022-12-12T08:57:45.547Z,106
2022-12-12T08:59:01.776Z,106
2022-12-12T09:00:17.789Z,106
2022-12-12T09:01:34.043Z,101
2022-12-12T09:02:50.272Z,90
2022-12-12T09:04:05.768Z,84
2022-12-12T09:05:21.997Z,84
2022-12-12T09:06:38.006Z,84
2022-12-12T09:07:54.251Z,84
2022-12-12T09:09:10.498Z,84
2022-12-12T09:10:26.728Z,90
2022-12-12T09:11:42.972Z,90
2022-12-12T09:12:59.448Z,90
2022-12-12T09:14:15.689Z,90
2022-12-12T09:15:31.917Z,95
2022-12-12T09:16:48.170Z,101
2022-12-12T09:18:04.170Z,106
2022-12-12T09:19:20.638Z,112
2022-12-12T09:20:36.651Z,129
2022-12-12T09:21:52.144Z,135
2022-12-12T09:23:08.153Z,135
2022-12-12T09:24:24.394Z,129
2022-12-12T09:25:40.644Z,140
2022-12-12T09:26:57.099Z,151
2022-12-12T09:28:13.351Z,157
2022-12-12T09:29:29.349Z,146
2022-12-12T09:30:45.831Z,129
2022-12-12T09:32:01.841Z,123
2022-12-12T09:33:18.294Z,123
2022-12-12T09:34:34.317Z,135
2022-12-12T09:35:50.788Z,129
2022-12-12T09:37:07.017Z,129
2022-12-12T09:38:23.259Z,129
2022-12-12T09:39:38.517Z,123
2022-12-12T09:40:54.535Z,135
2022-12-12T09:42:11.001Z,135
2022-12-12T09:43:27.245Z,140
2022-12-12T09:44:43.491Z,140
2022-12-12T09:45:59.495Z,140
2022-12-12T09:47:15.738Z,146
2022-12-12T09:48:31.968Z,157
2022-12-12T09:49:48.447Z,151
2022-12-12T09:51:04.452Z,151
2022-12-12T09:52:20.929Z,151
2022-12-12T09:53:36.931Z,146
2022-12-12T09:54:53.406Z,157
2022-12-12T09:56:09.639Z,157
2022-12-12T09:57:26.001Z,140
2022-12-12T09:58:42.239Z,135
2022-12-12T09:59:58.480Z,135
2022-12-12T10:01:14.511Z,129
2022-12-12T10:02:30.971Z,135
2022-12-12T10:03:47.202Z,129
2022-12-12T10:05:03.212Z,140
2022-12-12T10:06:19.465Z,146
2022-12-12T10:07:35.693Z,146
2022-12-12T10:08:51.940Z,151
2022-12-12T10:10:08.189Z,151
2022-12-12T10:11:24.645Z,146
2022-12-12T10:12:40.652Z,146
2022-12-12T10:13:56.147Z,157
2022-12-12T10:15:12.162Z,180
2022-12-12T10:16:28.401Z,185
2022-12-12T10:17:44.877Z,191
2022-12-12T10:19:01.110Z,196
2022-12-12T10:20:17.352Z,196
2022-12-12T10:21:33.349Z,191
2022-12-12T10:22:49.604Z,202
2022-12-12T10:24:06.062Z,202
2022-12-12T10:25:22.070Z,202
2022-12-12T10:26:38.319Z,191
2022-12-12T10:27:54.553Z,191
2022-12-12T10:29:10.806Z,196
2022-12-12T10:30:27.155Z,191
2022-12-12T10:31:43.624Z,196
2022-12-12T10:32:59.865Z,196
2022-12-12T10:34:16.102Z,202
2022-12-12T10:35:32.117Z,202
2022-12-12T10:36:48.359Z,202
2022-12-12T10:38:04.605Z,202
2022-12-12T10:39:20.846Z,208
2022-12-12T10:40:37.078Z,202
2022-12-12T10:41:53.325Z,208
2022-12-12T10:43:09.570Z,208
2022-12-12T10:44:25.805Z,213
2022-12-12T10:45:42.282Z,225
2022-12-12T10:46:57.311Z,236
2022-12-12T10:48:13.000Z,253
2022-12-12T10:49:30.000Z,258
2022-12-12T10:50:46.000Z,258
2022-12-12T10:52:02.000Z,264
2022-12-12T10:53:18.000Z,281
2022-12-12T10:54:35.000Z,286
2022-12-12T10:55:51.000Z,275
2022-12-12T10:57:07.220Z,275
2022-12-12T10:58:23.000Z,270
2022-12-12T10:59:39.000Z,275
2022-12-12T11:00:56.000Z,281
2022-12-12T11:02:12.000Z,275
2022-12-12T11:03:28.000Z,281
2022-12-12T11:04:43.000Z,286
2022-12-12T11:06:00.149Z,281
2022-12-12T11:07:16.000Z,286
2022-12-12T11:08:32.635Z,292
2022-12-12T11:09:48.000Z,286
2022-12-12T11:11:05.000Z,286
2022-12-12T11:12:21.000Z,286
2022-12-12T11:13:37.000Z,286
2022-12-12T11:14:53.826Z,286
2022-12-12T11:16:09.857Z,286
2022-12-12T11:17:26.000Z,292
2022-12-12T11:18:42.328Z,292
2022-12-12T11:19:58.000Z,292
2022-12-12T11:21:15.000Z,292
2022-12-12T11:22:30.000Z,292
2022-12-12T11:23:46.000Z,298
2022-12-12T11:25:02.773Z,298
2022-12-12T11:26:19.000Z,298
2022-12-12T11:27:35.000Z,298
2022-12-12T11:28:51.256Z,298
2022-12-12T11:30:07.728Z,298
2022-12-12T11:31:23.968Z,298
2022-12-12T11:32:40.000Z,298
2022-12-12T11:33:56.000Z,298
2022-12-12T11:35:12.000Z,292
2022-12-12T11:36:28.000Z,292
2022-12-12T11:37:45.000Z,292
2022-12-12T11:39:01.406Z,298
2022-12-12T11:40:16.434Z,292
2022-12-12T11:41:32.688Z,292
2022-12-12T11:42:49.000Z,286
2022-12-12T11:44:05.000Z,286
2022-12-12T11:45:21.000Z,281
2022-12-12T11:46:37.000Z,281
2022-12-12T11:47:54.000Z,275
2022-12-12T11:49:10.000Z,281
2022-12-12T11:50:26.585Z,275
2022-12-12T11:51:41.621Z,281
2022-12-12T11:52:58.000Z,275
2022-12-12T11:54:14.000Z,275
2022-12-12T11:55:30.000Z,275
2022-12-12T11:56:46.000Z,270
2022-12-12T11:58:03.000Z,275
2022-12-12T11:59:19.000Z,275
2022-12-12T12:00:35.000Z,275
2022-12-12T12:01:51.776Z,275
2022-12-12T12:03:07.784Z,270
2022-12-12T12:04:24.000Z,275
2022-12-12T12:05:40.000Z,270
2022-12-12T12:06:56.000Z,270
2022-12-12T12:08:13.000Z,275
2022-12-12T12:09:28.246Z,275
2022-12-12T12:10:44.000Z,275
2022-12-12T12:12:00.000Z,275
2022-12-12T12:13:16.726Z,275
2022-12-12T12:14:33.200Z,270
2022-12-12T12:15:49.000Z,275
2022-12-12T12:17:05.000Z,270
2022-12-12T12:18:21.000Z,275
2022-12-12T12:19:38.000Z,275
2022-12-12T12:20:54.000Z,275
2022-12-12T12:22:10.000Z,275
2022-12-12T12:23:26.658Z,275
2022-12-12T12:24:43.116Z,275
2022-12-12T12:25:59.000Z,275
2022-12-12T12:27:14.000Z,270
2022-12-12T12:28:30.000Z,270
2022-12-12T12:29:47.000Z,270
2022-12-12T12:31:03.000Z,270
2022-12-12T12:32:19.000Z,264
2022-12-12T12:33:35.000Z,264
2022-12-12T12:34:52.000Z,258
2022-12-12T12:36:08.000Z,270
2022-12-12T12:37:24.303Z,275
2022-12-12T12:38:40.000Z,275
2022-12-12T12:39:57.000Z,270
2022-12-12T12:41:13.000Z,258
2022-12-12T12:42:29.000Z,258
2022-12-12T12:43:45.000Z,258
2022-12-12T12:45:01.000Z,253
2022-12-12T12:46:17.000Z,247
2022-12-12T12:47:33.482Z,241
2022-12-12T12:48:49.000Z,241
2022-12-12T12:50:05.000Z,247
2022-12-12T12:51:22.000Z,241
2022-12-12T12:52:38.000Z,236
2022-12-12T12:53:54.000Z,230
2022-12-12T12:55:10.000Z,230
2022-12-12T12:56:27.000Z,236
2022-12-12T12:57:43.000Z,241
2022-12-12T12:58:59.631Z,247
2022-12-12T13:00:15.000Z,241
2022-12-12T13:01:32.000Z,241
2022-12-12T13:02:47.000Z,241
2022-12-12T13:04:03.000Z,236
2022-12-12T13:05:19.000Z,236
2022-12-12T13:06:36.000Z,230
2022-12-12T13:07:52.000Z,225
2022-12-12T13:09:08.573Z,225
2022-12-12T13:10:24.823Z,225
2022-12-12T13:11:41.000Z,225
2022-12-12T13:12:57.000Z,219
2022-12-12T13:14:13.000Z,213
2022-12-12T13:15:29.799Z,208
2022-12-12T13:16:46.000Z,208
2022-12-12T13:18:02.268Z,208
2022-12-12T13:19:18.000Z,202
2022-12-12T13:20:33.767Z,196
2022-12-12T13:21:50.000Z,191
2022-12-12T13:23:06.000Z,191
2022-12-12T13:24:22.000Z,185
2022-12-12T13:25:38.000Z,174
2022-12-12T13:26:54.000Z,174
2022-12-12T13:28:11.000Z,174
2022-12-12T13:29:27.000Z,174
2022-12-12T13:30:43.683Z,168
2022-12-12T13:31:59.922Z,163
2022-12-12T13:33:16.157Z,163
2022-12-12T13:34:32.000Z,151
2022-12-12T13:35:48.000Z,146
2022-12-12T13:37:04.000Z,146
2022-12-12T13:38:20.000Z,151
2022-12-12T13:39:36.000Z,151
2022-12-12T13:40:52.620Z,140
2022-12-12T13:42:08.000Z,140
2022-12-12T13:43:25.000Z,140
2022-12-12T13:44:41.000Z,140
2022-12-12T13:45:57.000Z,146
2022-12-12T13:47:13.817Z,146
2022-12-12T13:48:30.000Z,146
2022-12-12T13:49:46.000Z,140
2022-12-12T13:51:02.000Z,135
2022-12-12T13:52:18.782Z,135
2022-12-12T13:53:35.039Z,129
2022-12-12T13:54:51.000Z,123
2022-12-12T13:56:06.520Z,118
2022-12-12T13:57:22.000Z,112
2022-12-12T13:58:39.000Z,106
2022-12-12T13:59:55.000Z,106
2022-12-12T14:01:11.000Z,101
2022-12-12T14:02:27.000Z,101
2022-12-12T14:03:43.971Z,95
2022-12-12T14:05:00.000Z,90
2022-12-12T14:06:16.000Z,84
2022-12-12T14:07:32.000Z,78
2022-12-12T14:08:48.000Z,73
2022-12-12T14:10:05.000Z,73
2022-12-12T14:11:21.000Z,67
2022-12-12T14:12:37.646Z,67
2022-12-12T14:13:52.910Z,61
2022-12-12T14:15:09.000Z,61
2022-12-12T14:16:25.000Z,61
2022-12-12T14:17:41.000Z,61
2022-12-12T14:18:57.872Z,56
2022-12-12T14:20:14.116Z,50
2022-12-12T14:21:30.343Z,45
2022-12-12T14:22:46.000Z,45
2022-12-12T14:24:02.829Z,39
2022-12-12T14:25:19.000Z,39
2022-12-12T14:26:35.000Z,39
2022-12-12T14:27:51.000Z,33
2022-12-12T14:29:07.000Z,33
2022-12-12T14:30:24.000Z,33
2022-12-12T14:31:39.000Z,33
2022-12-12T14:32:55.000Z,28
2022-12-12T14:34:11.000Z,28
2022-12-12T14:35:27.997Z,28
2022-12-12T14:36:44.000Z,28
2022-12-12T14:38:00.000Z,28
2022-12-12T14:39:16.000Z,22
2022-12-12T14:40:32.000Z,22
2022-12-12T14:41:49.000Z,22
2022-12-12T14:43:05.000Z,22
2022-12-12T14:44:21.000Z,22
2022-12-12T14:45:37.000Z,22
2022-12-12T14:46:54.170Z,16
2022-12-12T14:48:10.000Z,16
2022-12-12T14:49:25.000Z,16
2022-12-12T14:50:41.000Z,16
2022-12-12T14:51:58.000Z,16
2022-12-12T14:53:14.000Z,11
2022-12-12T14:54:30.000Z,11
2022-12-12T14:55:46.000Z,11
2022-12-12T14:57:03.000Z,5
2022-12-12T14:58:19.000Z,5
2022-12-12T14:59:35.000Z,5
2022-12-12T15:00:51.000Z,5
2022-12-12T15:02:08.000Z,5
2022-12-12T15:03:24.000Z,5
2022-12-12T15:04:40.000Z,5
2022-12-12T15:05:56.000Z,0
2022-12-12T15:07:12.000Z,0
2022-12-12T15:08:28.000Z,0
2022-12-12T15:09:44.533Z,0
2022-12-12T15:11:00.782Z,0
2022-12-12T15:12:17.001Z,0
2022-12-12T15:13:33.251Z,0
2022-12-12T15:14:49.492Z,0
2022-12-12T15:16:05.724Z,0
2022-12-12T15:17:21.973Z,0
2022-12-12T15:18:38.211Z,0
2022-12-12T15:19:54.438Z,0
2022-12-12T15:21:10.692Z,0
2022-12-12T15:22:26.933Z,0
2022-12-12T15:23:43.177Z,0
2022-12-12T15:24:58.438Z,0
2022-12-12T15:26:14.674Z,0
2022-12-12T15:27:30.913Z,0
2022-12-12T15:28:47.151Z,0
2022-12-12T15:30:03.391Z,0
2022-12-12T15:31:19.631Z,0
2022-12-12T15:32:35.883Z,0
2022-12-12T15:33:52.118Z,0
2022-12-12T15:35:08.344Z,0
2022-12-12T15:36:24.592Z,0
2022-12-12T15:37:40.834Z,0
2022-12-12T15:38:57.071Z,0
2022-12-12T15:40:13.317Z,0
2022-12-12T15:41:29.541Z,0
2022-12-12T15:42:44.809Z,0
2022-12-12T15:44:01.095Z,0
2022-12-12T15:45:17.393Z,0
2022-12-12T15:46:33.692Z,0
2022-12-12T15:47:50.000Z,0
2022-12-12T15:49:06.284Z,0
2022-12-12T15:50:22.575Z,0
2022-12-12T15:51:38.865Z,0
2022-12-12T15:52:55.162Z,0
2022-12-12T15:54:11.446Z,0
2022-12-12T15:55:27.747Z,0
2022-12-12T15:56:44.046Z,0
2022-12-12T15:58:00.345Z,0
2022-12-12T15:59:16.635Z,0
2022-12-12T16:00:31.949Z,0
2022-12-12T16:01:48.243Z,0
2022-12-12T16:03:04.542Z,0
2022-12-12T16:04:20.831Z,0
2022-12-12T16:05:37.114Z,0
2022-12-12T16:06:52.435Z,0
2022-12-12T16:08:08.727Z,0
2022-12-12T16:09:25.024Z,0
2022-12-12T16:10:41.322Z,0
2022-12-12T16:11:57.625Z,0
2022-12-12T16:13:13.904Z,0
2022-12-12T16:14:30.208Z,0
2022-12-12T16:15:46.505Z,0
2022-12-12T16:17:02.786Z,0
2022-12-12T16:18:19.103Z,0
2022-12-12T16:19:35.385Z,0
2022-12-12T16:20:51.706Z,0
2022-12-12T16:22:08.001Z,0
2022-12-12T16:23:23.323Z,0
2022-12-12T16:24:39.609Z,0
2022-12-12T16:25:55.905Z,0
2022-12-12T16:27:12.209Z,0
2022-12-12T16:28:28.484Z,0
2022-12-12T16:29:44.790Z,0
2022-12-12T16:31:01.084Z,0
2022-12-12T16:32:17.379Z,0
2022-12-12T16:33:33.668Z,0
2022-12-12T16:34:49.968Z,0
2022-12-12T16:36:06.245Z,0
2022-12-12T16:37:22.582Z,0
2022-12-12T16:38:38.873Z,0
2022-12-12T16:39:55.159Z,0
2022-12-12T16:41:10.481Z,0
2022-12-12T16:42:26.776Z,0
2022-12-12T16:43:43.073Z,0
2022-12-12T16:44:59.365Z,0
2022-12-12T16:46:15.655Z,0
2022-12-12T16:47:31.950Z,0
2022-12-12T16:48:48.237Z,0
2022-12-12T16:50:04.542Z,0
2022-12-12T16:51:20.832Z,0
2022-12-12T16:52:37.119Z,0
2022-12-12T16:53:53.423Z,0
2022-12-12T16:55:09.716Z,0
2022-12-12T16:56:26.002Z,0
2022-12-12T16:57:42.423Z,0
2022-12-12T16:58:58.730Z,0
2022-12-12T17:00:15.019Z,0
2022-12-12T17:01:31.313Z,0
2022-12-12T17:02:47.603Z,0
2022-12-12T17:04:03.901Z,0
2022-12-12T17:05:20.208Z,0
2022-12-12T17:06:36.477Z,0
2022-12-12T17:07:52.777Z,0
2022-12-12T17:09:09.073Z,0
2022-12-12T17:10:25.358Z,0
2022-12-12T17:11:41.679Z,0
2022-12-12T17:12:57.953Z,0
2022-12-12T17:14:13.269Z,0
2022-12-12T17:15:29.570Z,0
2022-12-12T17:16:45.861Z,0
2022-12-12T17:18:02.154Z,0
2022-12-12T17:19:18.466Z,0
2022-12-12T17:20:34.746Z,0
2022-12-12T17:21:51.034Z,0
2022-12-12T17:24:23.636Z,0
2022-12-12T17:25:39.912Z,0
2022-12-12T17:26:56.213Z,0
2022-12-12T17:28:12.511Z,0
2022-12-12T17:29:28.803Z,0
2022-12-12T17:30:44.118Z,0
2022-12-12T17:32:00.408Z,0
2022-12-12T17:33:16.716Z,0
2022-12-12T17:34:32.995Z,0
2022-12-12T17:35:49.291Z,0
2022-12-12T17:37:05.585Z,0
2022-12-12T17:38:21.887Z,0
2022-12-12T17:39:38.162Z,0
2022-12-12T17:40:54.471Z,0
2022-12-12T17:42:10.751Z,0
2022-12-12T17:43:27.057Z,0
2022-12-12T17:44:43.341Z,0
2022-12-12T17:45:59.639Z,0
2022-12-12T17:47:14.950Z,0
2022-12-12T17:48:31.255Z,0
2022-12-12T17:49:47.544Z,0
2022-12-12T17:51:03.842Z,0
2022-12-12T17:52:20.136Z,0
2022-12-12T17:53:36.436Z,0
2022-12-12T17:54:52.717Z,0
2022-12-12T17:56:09.007Z,0
2022-12-12T17:57:25.316Z,0
2022-12-12T17:58:41.608Z,0
2022-12-12T17:59:57.918Z,0
2022-12-12T18:01:14.200Z,0
2022-12-12T18:02:30.478Z,0
2022-12-12T18:03:46.801Z,0
2022-12-12T18:05:02.105Z,0
2022-12-12T18:06:18.383Z,0
2022-12-12T18:07:34.674Z,0
2022-12-12T18:08:50.985Z,0
2022-12-12T18:10:07.281Z,0
2022-12-12T18:11:23.575Z,0
2022-12-12T18:12:39.863Z,0
2022-12-12T18:13:56.146Z,0
2022-12-12T18:15:12.449Z,0
2022-12-12T18:16:28.756Z,0
2022-12-12T18:17:45.042Z,0
2022-12-12T18:19:01.332Z,0